Historyczne dane pomiarowe

Dodano dane terminowe – wersja testowa.

Dane z okresu 1951-2019

Wersja bazy: 1.34 [2019-03-16, lista zmian], aktualizacja planowana na 2019-04-15

Dane meteo z obszaru Polski uzyskane na podstawie danych udostępnionych przez Instytut Meteorologii i Gospodarki Wodnej – Państwowy Instytut Badawczy.

 

Wybierz Datę:    

       

TemperaturaWilgotnośćWiatrCiśnienieOpadyŚniegCzas trwania zjawisk
 Stacja t tx tn tng RH VA  wxwx mslp ppp RRR   cm mm wxwxwxwxwxwxwx
1956-11-09 -3.2 0.3 -6.3- 76.5- 5.3 2.0---- 0.0------------
1956-11-08 -2.9 1.6 -6.9- 83.3- 5.0 1.3---- 0.0------------
1956-11-07 0.2 2.0 -0.8- 96.0- 7.7 2.7---- 1.3------------
1956-11-06 1.2 3.3 -2.3- 86.3- 8.0 4.7---- 0.8------------
1956-11-05 2.9 5.3 -4.4- 94.8- 8.0 2.0---- 3.6------------
1956-11-04 -2.0 3.0 -6.1- 83.0- 0.7 1.0---- 0.4------------
1956-11-03 -0.4 3.2 -5.1- 80.8- 6.3 2.0---- 0.0------------
1956-11-02 -1.3 0.4 -4.8- 90.3- 5.7 1.7---- 2.1------------
1956-11-01 -2.4 5.9 -9.0- 85.5- 1.0 1.3---- 0.0------------
1956-10-31 -4.2 1.0 -5.8- 77.5- 3.7 4.0---- 0.0------------
1956-10-30 2.7 5.9 0.4- 93.0- 8.0 2.3---- 0.2------------
1956-10-29 3.6 8.7 0.0- 89.0- 6.0 2.0---- 1.7------------
1956-10-28 8.3 11.5 4.3- 98.0- 8.0 3.0---- 3.8------------
1956-10-27 9.3 11.5 5.0- 95.3- 5.3 1.3---- 1.9------------
1956-10-26 7.5 9.2 5.1- 99.5- 8.0 1.0---- 1.4------------
1956-10-25 10.4 16.8 5.0- 85.0- 2.0 1.7---- 0.0------------
1956-10-24 10.0 16.5 2.5- 86.8- 3.3 1.3---- 0.0------------
1956-10-23 7.3 14.0 4.7- 94.0- 3.7 1.3---- 0.0------------
1956-10-22 10.1 17.3 6.4- 90.8- 1.3 1.0---- 0.0------------
1956-10-21 12.3 18.0 8.4- 88.5- 6.0 1.3---- 0.0------------
1956-10-20 11.3 14.2 9.2- 92.0- 8.0 1.0---- 0.0------------
1956-10-19 11.6 13.6 9.1- 95.0- 8.0 2.3---- 0.2------------
1956-10-18 9.8 14.2 2.7- 89.3- 8.0 2.7---- 0.1------------
1956-10-17 6.8 15.7 -1.0- 80.8- 0.0 2.3---- 0.0------------
1956-10-16 3.9 11.8 -2.3- 87.8- 1.0 1.0---- 0.0------------
1956-10-15 3.4 11.1 -0.7- 88.0- 1.3 1.7---- 0.0------------
1956-10-14 7.8 12.2 4.5- 78.8- 4.0 4.7---- 2.9------------
1956-10-13 9.4 11.8 5.3- 81.8- 8.0 5.7---- 1.1------------
1956-10-12 8.0 12.6 5.3- 84.3- 4.7 2.3---- 0.0------------
1956-10-11 5.9 11.4 -0.9- 79.8- 5.0 2.0---- 0.0------------
1956-10-10 2.5 8.2 -0.2- 83.8- 3.0 2.3---- 0.0------------
1956-10-09 6.1 9.3 0.0- 91.3- 7.7 1.0---- 0.0------------
1956-10-08 4.1 9.4 -0.2- 88.3- 5.7 1.7---- 0.0------------
1956-10-07 5.0 8.5 3.5- 90.5- 6.0 3.7---- 3.6------------
1956-10-06 4.5 8.7 2.6- 95.8- 8.0 3.0---- 30.6------------
1956-10-05 9.2 15.6 6.4- 86.3- 6.7 2.3---- 0.2------------
1956-10-04 10.7 12.3 7.8- 96.3- 8.0 1.3---- 8.1------------
1956-10-03 13.5 18.3 9.6- 83.8- 6.3 2.3---- 0.0------------
1956-10-02 16.2 24.7 9.5- 75.8- 0.7 3.7---- 0.0------------
1956-10-01 15.8 24.3 8.5- 83.3- 1.3 2.0---- 0.0------------
1956-09-30 13.3 19.3 9.8- 87.8- 4.3 1.3---- 0.0------------
1956-09-29 16.8 22.0 9.9- 79.8- 5.3 2.3---- 0.0------------
1956-09-28 13.2 18.6 11.1- 85.5- 4.0 1.7---- 0.0------------
1956-09-27 15.0 23.9 9.8- 79.5- 3.7 2.0---- 0.8------------
1956-09-26 14.5 24.6 5.1- 70.5- 0.0 2.0---- 0.0------------
1956-09-25 12.5 23.1 3.4- 78.0- 1.0 2.0---- 0.0------------
1956-09-24 9.8 16.3 4.6- 61.3- 0.0 3.7---- 0.0------------
1956-09-23 12.2 19.1 7.2- 75.5- 1.0 3.7---- 0.0------------
1956-09-22 12.9 20.7 4.5- 77.8- 0.0 2.0---- 0.0------------
1956-09-21 11.1 19.5 2.8- 78.3- 0.0 0.7---- 0.0------------
1956-09-20 9.0 17.6 2.3- 81.3- 4.7 2.0---- 0.0------------
1956-09-19 9.3 17.1 0.6- 75.8- 1.3 1.7---- 0.0------------
1956-09-18 8.0 12.2 4.5- 84.0- 5.0 1.3---- 0.0------------
1956-09-17 6.9 10.0 4.8- 95.5- 5.3 3.0---- 8.9------------
1956-09-16 10.3 16.9 5.3- 83.8- 6.0 2.0---- 0.4------------
1956-09-15 9.6 15.7 3.9- 90.3- 2.7 1.7---- 0.0------------
1956-09-14 8.2 12.7 5.6- 91.3- 5.3 2.0---- 0.0------------
1956-09-13 9.4 13.5 6.2- 85.0- 8.0 2.3---- 3.4------------
1956-09-12 10.0 15.1 6.3- 92.8- 6.7 2.0---- 11.6------------
1956-09-11 14.6 19.2 12.8- 93.0- 7.7 3.0---- 0.1------------
219.6 ms

 

Źródłem pochodzenia danych jest Instytut Meteorologii i Gospodarki Wodnej – Państwowy Instytut Badawczy. Dane Instytutu Meteorologii i Gospodarki Wodnej – Państwowego Instytutu Badawczego zostały przetworzone.

Dane źródłowe można odnaleźć na stronie https://dane.imgw.pl